Time,TemperatureF,DewpointF,PressureIn,WindDirection,WindDirectionDegrees,WindSpeedMPH,WindSpeedGustMPH,Humidity,HourlyPrecipIn,Conditions,Clouds,dailyrainin,SoftwareType,DateUTC
2013-07-23 00:00:00,75.4,71.2,29.88,East,92,0.0,0.0,87,0.00,CLR,CLR,0.00,WeatherDisplay:10.37,2013-07-23 04:00:00,
2013-07-23 00:05:00,75.6,71.4,29.88,ESE,112,0.0,0.0,87,0.00,CLR,CLR,0.00,WeatherDisplay:10.37,2013-07-23 04:05:00,
2013-07-23 00:10:00,75.4,71.2,29.88,SE,125,0.0,3.0,87,0.00,CLR,CLR,0.00,WeatherDisplay:10.37,2013-07-23 04:10:00,
2013-07-23 00:15:00,75.4,71.2,29.85,SSE,162,2.0,3.0,87,0.00,CLR,CLR,0.00,WeatherDisplay:10.37,2013-07-23 04:15:00,
2013-07-23 00:20:00,75.6,71.8,29.85,SSE,165,2.0,0.0,88,0.00,CLR,CLR,0.00,WeatherDisplay:10.37,2013-07-23 04:20:00,
2013-07-23 00:25:00,75.6,71.8,29.85,SSE,161,0.0,0.0,88,0.00,CLR,CLR,0.00,WeatherDisplay:10.37,2013-07-23 04:25:00,
2013-07-23 00:30:00,75.6,71.8,29.85,SSE,149,0.0,0.0,88,0.00,CLR,CLR,0.00,WeatherDisplay:10.37,2013-07-23 04:30:00,
2013-07-23 00:35:00,75.4,71.6,29.85,ESE,116,0.0,0.0,88,0.00,CLR,CLR,0.00,WeatherDisplay:10.37,2013-07-23 04:35:00,
2013-07-23 00:40:00,75.4,71.6,29.85,East,101,0.0,0.0,88,0.00,CLR,CLR,0.00,WeatherDisplay:10.37,2013-07-23 04:40:00,
2013-07-23 00:45:00,75.4,71.6,29.85,SE,136,0.0,0.0,88,0.00,CLR,CLR,0.00,WeatherDisplay:10.37,2013-07-23 04:45:00,
2013-07-23 00:50:00,75.4,71.6,29.85,SSE,165,0.0,0.0,88,0.00,CLR,CLR,0.00,WeatherDisplay:10.37,2013-07-23 04:50:00,
2013-07-23 00:55:00,75.4,71.6,29.85,SSE,159,0.0,0.0,88,0.00,CLR,CLR,0.00,WeatherDisplay:10.37,2013-07-23 04:55:00,
2013-07-23 01:00:00,75.4,71.6,29.85,SSE,150,0.0,0.0,88,0.00,CLR,CLR,0.00,WeatherDisplay:10.37,2013-07-23 05:00:00,
2013-07-23 01:05:00,75.4,71.9,29.85,SE,136,0.0,0.0,89,0.00,CLR,CLR,0.00,WeatherDisplay:10.37,2013-07-23 05:05:00,
2013-07-23 01:10:00,75.4,71.9,29.85,SE,127,0.0,0.0,89,0.00,CLR,CLR,0.00,WeatherDisplay:10.37,2013-07-23 05:10:00,
2013-07-23 01:15:00,75.3,71.8,29.85,East,93,0.0,3.0,89,0.00,CLR,CLR,0.00,WeatherDisplay:10.37,2013-07-23 05:15:00,
2013-07-23 01:20:00,75.2,71.7,29.85,ESE,110,0.0,3.0,89,0.00,CLR,CLR,0.00,WeatherDisplay:10.37,2013-07-23 05:20:00,
2013-07-23 01:25:00,75.2,71.7,29.85,SSW,212,0.0,6.0,89,0.00,CLR,CLR,0.00,WeatherDisplay:10.37,2013-07-23 05:25:00,
2013-07-23 01:30:00,75.2,71.7,29.85,SSW,194,0.0,6.0,89,0.00,CLR,CLR,0.00,WeatherDisplay:10.37,2013-07-23 05:30:00,
2013-07-23 01:35:00,75.2,71.7,29.85,SSE,160,0.0,0.0,89,0.00,CLR,CLR,0.00,WeatherDisplay:10.37,2013-07-23 05:35:00,
2013-07-23 01:40:00,75.2,71.7,29.85,East,88,0.0,0.0,89,0.00,CLR,CLR,0.00,WeatherDisplay:10.37,2013-07-23 05:40:00,
2013-07-23 01:45:00,75.0,71.9,29.85,NE,48,0.0,3.0,90,0.00,CLR,CLR,0.00,WeatherDisplay:10.37,2013-07-23 05:45:00,
2013-07-23 01:50:00,75.0,71.9,29.85,NE,38,0.0,2.0,90,0.00,CLR,CLR,0.00,WeatherDisplay:10.37,2013-07-23 05:50:00,
2013-07-23 01:55:00,75.0,71.9,29.85,North,10,0.0,0.0,90,0.00,CLR,CLR,0.00,WeatherDisplay:10.37,2013-07-23 05:55:00,
2013-07-23 02:00:00,75.0,71.9,29.85,North,11,0.0,0.0,90,0.00,CLR,CLR,0.00,WeatherDisplay:10.37,2013-07-23 06:00:00,
2013-07-23 02:05:00,75.0,71.9,29.85,NNE,20,0.0,0.0,90,0.00,CLR,CLR,0.00,WeatherDisplay:10.37,2013-07-23 06:05:00,
2013-07-23 02:10:00,75.0,71.9,29.85,NE,41,0.0,3.0,90,0.00,CLR,CLR,0.00,WeatherDisplay:10.37,2013-07-23 06:10:00,
2013-07-23 02:15:00,75.0,71.9,29.85,NE,56,0.0,0.0,90,0.00,CLR,CLR,0.00,WeatherDisplay:10.37,2013-07-23 06:15:00,
2013-07-23 02:20:00,74.9,71.8,29.85,NE,52,0.0,0.0,90,0.00,CLR,CLR,0.00,WeatherDisplay:10.37,2013-07-23 06:20:00,
2013-07-23 02:25:00,74.8,71.7,29.85,ESE,121,0.0,0.0,90,0.00,CLR,CLR,0.00,WeatherDisplay:10.37,2013-07-23 06:25:00,
2013-07-23 02:30:00,74.8,71.7,29.83,SE,127,0.0,0.0,90,0.00,CLR,CLR,0.00,WeatherDisplay:10.37,2013-07-23 06:30:00,
2013-07-23 02:35:00,74.8,72.0,29.83,East,83,0.0,0.0,91,0.00,CLR,CLR,0.00,WeatherDisplay:10.37,2013-07-23 06:35:00,
2013-07-23 02:40:00,74.8,72.0,29.83,East,87,0.0,0.0,91,0.00,CLR,CLR,0.00,WeatherDisplay:10.37,2013-07-23 06:40:00,
2013-07-23 02:45:00,74.8,72.0,29.83,ESE,103,0.0,0.0,91,0.00,CLR,CLR,0.00,WeatherDisplay:10.37,2013-07-23 06:45:00,
2013-07-23 02:50:00,74.8,72.0,29.83,SE,128,0.0,0.0,91,0.00,CLR,CLR,0.00,WeatherDisplay:10.37,2013-07-23 06:50:00,
2013-07-23 02:55:00,74.8,72.0,29.83,ESE,112,0.0,0.0,91,0.00,CLR,CLR,0.00,WeatherDisplay:10.37,2013-07-23 06:55:00,
2013-07-23 03:00:00,74.8,72.0,29.83,East,101,0.0,0.0,91,0.00,CLR,CLR,0.00,WeatherDisplay:10.37,2013-07-23 07:00:00,
2013-07-23 03:05:00,74.8,72.0,29.83,SE,129,0.0,0.0,91,0.00,CLR,CLR,0.00,WeatherDisplay:10.37,2013-07-23 07:05:00,
2013-07-23 03:10:00,74.8,72.0,29.83,NE,51,0.0,0.0,91,0.00,CLR,CLR,0.00,WeatherDisplay:10.37,2013-07-23 07:10:00,
2013-07-23 03:15:00,74.8,72.4,29.83,NNW,344,0.0,0.0,92,0.00,CLR,CLR,0.00,WeatherDisplay:10.37,2013-07-23 07:15:00,
2013-07-23 03:20:00,74.8,72.4,29.83,NNW,344,0.0,0.0,92,0.00,CLR,CLR,0.00,WeatherDisplay:10.37,2013-07-23 07:20:00,
2013-07-23 03:30:00,74.8,72.4,29.83,SSE,154,0.0,0.0,92,0.00,CLR,CLR,0.00,WeatherDisplay:10.37,2013-07-23 07:30:00,
2013-07-23 03:35:00,75.0,72.5,29.83,South,174,0.0,0.0,92,0.00,CLR,CLR,0.00,WeatherDisplay:10.37,2013-07-23 07:35:00,
2013-07-23 03:40:00,75.0,72.5,29.83,NW,305,0.0,0.0,92,0.00,CLR,CLR,0.00,WeatherDisplay:10.37,2013-07-23 07:40:00,
2013-07-23 03:45:00,75.0,72.5,29.83,NW,315,0.0,0.0,92,0.00,CLR,CLR,0.00,WeatherDisplay:10.37,2013-07-23 07:45:00,
2013-07-23 03:50:00,75.0,72.5,29.83,NW,320,0.0,0.0,92,0.00,CLR,CLR,0.00,WeatherDisplay:10.37,2013-07-23 07:50:00,
2013-07-23 03:55:00,75.0,72.9,29.83,NNW,331,0.0,0.0,93,0.00,CLR,CLR,0.00,WeatherDisplay:10.37,2013-07-23 07:55:00,
2013-07-23 04:00:00,75.0,72.9,29.83,NNW,338,0.0,0.0,93,0.00,CLR,CLR,0.00,WeatherDisplay:10.37,2013-07-23 08:00:00,
2013-07-23 04:05:00,75.2,73.0,29.83,NNW,342,0.0,0.0,93,0.00,CLR,CLR,0.00,WeatherDisplay:10.37,2013-07-23 08:05:00,
2013-07-23 04:10:00,75.2,73.0,29.83,NNW,339,0.0,0.0,93,0.00,CLR,CLR,0.00,WeatherDisplay:10.37,2013-07-23 08:10:00,
2013-07-23 04:15:00,75.2,73.0,29.83,ESE,122,0.0,0.0,93,0.00,CLR,CLR,0.00,WeatherDisplay:10.37,2013-07-23 08:15:00,
2013-07-23 04:20:00,75.2,73.0,29.83,ESE,105,0.0,0.0,93,0.00,CLR,CLR,0.00,WeatherDisplay:10.37,2013-07-23 08:20:00,
2013-07-23 04:25:00,75.0,72.9,29.83,ESE,109,0.0,0.0,93,0.00,CLR,CLR,0.00,WeatherDisplay:10.37,2013-07-23 08:25:00,
2013-07-23 04:30:00,75.0,72.9,29.83,SE,136,0.0,0.0,93,0.00,CLR,CLR,0.00,WeatherDisplay:10.37,2013-07-23 08:30:00,
2013-07-23 04:35:00,75.0,72.9,29.83,ESE,119,0.0,0.0,93,0.00,CLR,CLR,0.00,WeatherDisplay:10.37,2013-07-23 08:35:00,
2013-07-23 04:40:00,75.0,72.9,29.83,SW,231,0.0,0.0,93,0.00,CLR,CLR,0.00,WeatherDisplay:10.37,2013-07-23 08:40:00,
2013-07-23 04:45:00,75.0,72.9,29.83,SSW,205,0.0,0.0,93,0.00,CLR,CLR,0.00,WeatherDisplay:10.37,2013-07-23 08:45:00,
2013-07-23 04:50:00,75.0,72.9,29.83,East,99,0.0,0.0,93,0.00,CLR,CLR,0.00,WeatherDisplay:10.37,2013-07-23 08:50:00,
2013-07-23 04:55:00,75.0,72.9,29.83,East,97,0.0,0.0,93,0.00,CLR,CLR,0.00,WeatherDisplay:10.37,2013-07-23 08:55:00,
2013-07-23 05:00:00,75.0,72.9,29.85,NE,50,0.0,0.0,93,0.00,CLR,CLR,0.00,WeatherDisplay:10.37,2013-07-23 09:00:00,
2013-07-23 05:05:00,75.0,72.9,29.85,North,5,0.0,0.0,93,0.00,CLR,CLR,0.00,WeatherDisplay:10.37,2013-07-23 09:05:00,
2013-07-23 05:10:00,75.0,72.9,29.85,NNW,344,0.0,0.0,93,0.00,CLR,CLR,0.00,WeatherDisplay:10.37,2013-07-23 09:10:00,
2013-07-23 05:15:00,74.8,72.7,29.85,North,11,0.0,0.0,93,0.00,CLR,CLR,0.00,WeatherDisplay:10.37,2013-07-23 09:15:00,
2013-07-23 05:20:00,74.7,72.5,29.85,NE,34,0.0,0.0,93,0.00,CLR,CLR,0.00,WeatherDisplay:10.37,2013-07-23 09:20:00,
2013-07-23 05:25:00,74.7,72.5,29.85,NE,34,0.0,0.0,93,0.00,CLR,CLR,0.00,WeatherDisplay:10.37,2013-07-23 09:25:00,
2013-07-23 05:30:00,74.5,72.3,29.85,NE,34,0.0,0.0,93,0.00,CLR,CLR,0.00,WeatherDisplay:10.37,2013-07-23 09:30:00,
2013-07-23 05:35:00,74.5,72.3,29.85,East,81,0.0,0.0,93,0.00,CLR,CLR,0.00,WeatherDisplay:10.37,2013-07-23 09:35:00,
2013-07-23 05:40:00,74.3,72.1,29.85,SSE,166,0.0,0.0,93,0.00,CLR,CLR,0.00,WeatherDisplay:10.37,2013-07-23 09:40:00,
2013-07-23 05:45:00,74.3,72.1,29.85,South,172,0.0,0.0,93,0.00,CLR,CLR,0.00,WeatherDisplay:10.37,2013-07-23 09:45:00,
2013-07-23 05:50:00,74.3,72.1,29.85,South,172,0.0,0.0,93,0.00,CLR,CLR,0.00,WeatherDisplay:10.37,2013-07-23 09:50:00,
2013-07-23 05:55:00,74.3,72.1,29.85,South,172,0.0,0.0,93,0.00,CLR,CLR,0.00,WeatherDisplay:10.37,2013-07-23 09:55:00,
2013-07-23 06:00:00,73.8,71.6,29.85,South,172,0.0,0.0,93,0.00,CLR,CLR,0.00,WeatherDisplay:10.37,2013-07-23 10:00:00,
2013-07-23 06:05:00,73.6,71.5,29.85,South,172,0.0,0.0,93,0.00,CLR,CLR,0.00,WeatherDisplay:10.37,2013-07-23 10:05:00,
2013-07-23 06:10:00,73.6,71.4,29.85,South,172,0.0,0.0,93,0.00,CLR,CLR,0.00,WeatherDisplay:10.37,2013-07-23 10:10:00,
2013-07-23 06:20:00,73.4,71.6,29.85,South,172,0.0,0.0,94,0.00,CLR,CLR,0.00,WeatherDisplay:10.37,2013-07-23 10:20:00,
2013-07-23 06:25:00,73.4,71.6,29.85,South,172,0.0,0.0,94,0.00,CLR,CLR,0.00,WeatherDisplay:10.37,2013-07-23 10:25:00,
2013-07-23 06:30:00,73.4,71.6,29.85,South,172,0.0,0.0,94,0.00,CLR,CLR,0.00,WeatherDisplay:10.37,2013-07-23 10:30:00,
2013-07-23 06:35:00,73.4,71.6,29.85,South,173,0.0,0.0,94,0.00,CLR,CLR,0.00,WeatherDisplay:10.37,2013-07-23 10:35:00,
2013-07-23 06:40:00,73.4,71.6,29.85,South,172,0.0,0.0,94,0.00,CLR,CLR,0.00,WeatherDisplay:10.37,2013-07-23 10:40:00,
2013-07-23 06:45:00,73.6,71.7,29.85,South,171,0.0,0.0,94,0.00,CLR,CLR,0.00,WeatherDisplay:10.37,2013-07-23 10:45:00,
2013-07-23 06:50:00,73.6,72.1,29.85,South,171,0.0,0.0,95,0.00,CLR,CLR,0.00,WeatherDisplay:10.37,2013-07-23 10:50:00,
2013-07-23 06:55:00,73.8,72.2,29.85,South,171,0.0,0.0,95,0.00,CLR,CLR,0.00,WeatherDisplay:10.37,2013-07-23 10:55:00,
2013-07-23 07:00:00,73.8,72.2,29.85,South,171,0.0,0.0,95,0.00,CLR,CLR,0.00,WeatherDisplay:10.37,2013-07-23 11:00:00,
2013-07-23 07:05:00,73.6,72.1,29.85,South,172,0.0,0.0,95,0.00,CLR,CLR,0.00,WeatherDisplay:10.37,2013-07-23 11:05:00,
2013-07-23 07:10:00,73.6,72.1,29.85,South,172,0.0,0.0,95,0.00,CLR,CLR,0.00,WeatherDisplay:10.37,2013-07-23 11:10:00,
2013-07-23 07:15:00,73.8,72.2,29.85,SSE,161,0.0,0.0,95,0.00,CLR,CLR,0.00,WeatherDisplay:10.37,2013-07-23 11:15:00,
2013-07-23 07:20:00,73.8,72.2,29.85,SE,127,0.0,0.0,95,0.00,CLR,CLR,0.00,WeatherDisplay:10.37,2013-07-23 11:20:00,
2013-07-23 07:25:00,73.8,72.2,29.85,SE,129,0.0,0.0,95,0.00,CLR,CLR,0.00,WeatherDisplay:10.37,2013-07-23 11:25:00,
2013-07-23 07:30:00,73.9,72.7,29.85,SE,124,0.0,0.0,96,0.00,CLR,CLR,0.00,WeatherDisplay:10.37,2013-07-23 11:30:00,
2013-07-23 07:35:00,73.9,72.7,29.85,ENE,69,0.0,0.0,96,0.00,CLR,CLR,0.00,WeatherDisplay:10.37,2013-07-23 11:35:00,
2013-07-23 07:40:00,74.1,72.9,29.85,NNE,25,0.0,0.0,96,0.00,CLR,CLR,0.00,WeatherDisplay:10.37,2013-07-23 11:40:00,
2013-07-23 07:45:00,74.1,72.9,29.85,NNE,22,0.0,0.0,96,0.00,CLR,CLR,0.00,WeatherDisplay:10.37,2013-07-23 11:45:00,
2013-07-23 07:50:00,74.3,73.1,29.85,NNE,31,0.0,0.0,96,0.00,CLR,CLR,0.00,WeatherDisplay:10.37,2013-07-23 11:50:00,
2013-07-23 07:55:00,74.3,73.1,29.85,ENE,65,0.0,0.0,96,0.00,CLR,CLR,0.00,WeatherDisplay:10.37,2013-07-23 11:55:00,
2013-07-23 08:00:00,74.5,73.3,29.85,WSW,251,0.0,0.0,96,0.00,CLR,CLR,0.00,WeatherDisplay:10.37,2013-07-23 12:00:00,
2013-07-23 08:05:00,74.5,73.3,29.85,West,272,0.0,0.0,96,0.00,CLR,CLR,0.00,WeatherDisplay:10.37,2013-07-23 12:05:00,
2013-07-23 08:10:00,74.7,73.4,29.85,SW,230,0.0,0.0,96,0.00,CLR,CLR,0.00,WeatherDisplay:10.37,2013-07-23 12:10:00,
2013-07-23 08:15:00,74.8,73.6,29.85,West,261,0.0,0.0,96,0.00,CLR,CLR,0.00,WeatherDisplay:10.37,2013-07-23 12:15:00,
2013-07-23 08:20:00,74.8,73.6,29.85,WSW,242,0.0,0.0,96,0.00,CLR,CLR,0.00,WeatherDisplay:10.37,2013-07-23 12:20:00,
2013-07-23 08:25:00,74.8,73.6,29.85,WSW,258,0.0,0.0,96,0.00,CLR,CLR,0.00,WeatherDisplay:10.37,2013-07-23 12:25:00,
2013-07-23 08:30:00,75.0,73.5,29.85,SW,232,0.0,0.0,95,0.00,CLR,CLR,0.00,WeatherDisplay:10.37,2013-07-23 12:30:00,
2013-07-23 08:35:00,75.0,73.5,29.85,SSW,198,0.0,0.0,95,0.00,CLR,CLR,0.00,WeatherDisplay:10.37,2013-07-23 12:35:00,
2013-07-23 08:40:00,75.2,73.7,29.85,South,183,0.0,0.0,95,0.00,CLR,CLR,0.00,WeatherDisplay:10.37,2013-07-23 12:40:00,
2013-07-23 08:45:00,75.2,73.7,29.85,SSE,159,0.0,0.0,95,0.00,CLR,CLR,0.00,WeatherDisplay:10.37,2013-07-23 12:45:00,
2013-07-23 08:50:00,75.2,73.7,29.85,SSE,159,0.0,0.0,95,0.00,CLR,CLR,0.00,WeatherDisplay:10.37,2013-07-23 12:50:00,
2013-07-23 08:55:00,75.6,74.0,29.85,SSE,159,0.0,0.0,95,0.00,CLR,CLR,0.00,WeatherDisplay:10.37,2013-07-23 12:55:00,
2013-07-23 09:00:00,75.9,74.1,29.85,SSE,159,0.0,0.0,94,0.00,CLR,CLR,0.00,WeatherDisplay:10.37,2013-07-23 13:00:00,
2013-07-23 09:05:00,76.3,74.4,29.85,SSE,159,0.0,0.0,94,0.00,CLR,CLR,0.00,WeatherDisplay:10.37,2013-07-23 13:05:00,
2013-07-23 09:10:00,76.8,74.6,29.85,SSE,167,0.0,0.0,93,0.00,CLR,CLR,0.00,WeatherDisplay:10.37,2013-07-23 13:10:00,
2013-07-23 09:15:00,76.8,74.3,29.85,WNW,300,0.0,0.0,92,0.00,CLR,CLR,0.00,WeatherDisplay:10.37,2013-07-23 13:15:00,
2013-07-23 09:20:00,77.0,74.5,29.85,NW,316,0.0,0.0,92,0.00,CLR,CLR,0.00,WeatherDisplay:10.37,2013-07-23 13:20:00,
2013-07-23 09:25:00,76.8,74.0,29.85,NW,316,0.0,0.0,91,0.00,CLR,CLR,0.00,WeatherDisplay:10.37,2013-07-23 13:25:00,
2013-07-23 09:30:00,76.8,73.7,29.85,NW,316,0.0,0.0,90,0.00,CLR,CLR,0.00,WeatherDisplay:10.37,2013-07-23 13:30:00,
2013-07-23 09:35:00,76.8,73.3,29.85,NW,316,0.0,0.0,89,0.00,CLR,CLR,0.00,WeatherDisplay:10.37,2013-07-23 13:35:00,
2013-07-23 09:40:00,76.8,73.0,29.85,NW,316,0.0,0.0,88,0.00,CLR,CLR,0.00,WeatherDisplay:10.37,2013-07-23 13:40:00,
2013-07-23 09:45:00,76.8,73.0,29.85,NW,316,0.0,0.0,88,0.00,CLR,CLR,0.00,WeatherDisplay:10.37,2013-07-23 13:45:00,
2013-07-23 09:50:00,77.1,73.3,29.85,NW,316,0.0,0.0,88,0.00,CLR,CLR,0.00,WeatherDisplay:10.37,2013-07-23 13:50:00,
2013-07-23 09:55:00,77.4,73.2,29.85,NW,316,0.0,0.0,87,0.00,CLR,CLR,0.00,WeatherDisplay:10.37,2013-07-23 13:55:00,
2013-07-23 10:05:00,78.0,73.5,29.85,NW,322,0.0,0.0,86,0.00,CLR,CLR,0.00,WeatherDisplay:10.37,2013-07-23 14:05:00,
2013-07-23 10:10:00,78.4,73.5,29.85,SE,126,0.0,0.0,85,0.00,CLR,CLR,0.00,WeatherDisplay:10.37,2013-07-23 14:10:00,
2013-07-23 10:15:00,78.8,73.6,29.85,SE,129,0.0,0.0,84,0.00,CLR,CLR,0.00,WeatherDisplay:10.37,2013-07-23 14:15:00,
2013-07-23 10:20:00,79.3,74.0,29.85,ESE,118,0.0,0.0,84,0.00,CLR,CLR,0.00,WeatherDisplay:10.37,2013-07-23 14:20:00,
2013-07-23 10:25:00,79.5,73.9,29.85,NE,56,0.0,0.0,83,0.00,CLR,CLR,0.00,WeatherDisplay:10.37,2013-07-23 14:25:00,
2013-07-23 10:30:00,79.9,73.9,29.85,NE,53,0.0,0.0,82,0.00,CLR,CLR,0.00,WeatherDisplay:10.37,2013-07-23 14:30:00,
2013-07-23 10:35:00,80.6,74.2,29.85,East,90,0.0,0.0,81,0.00,CLR,CLR,0.00,WeatherDisplay:10.37,2013-07-23 14:35:00,
2013-07-23 10:40:00,81.2,74.4,29.85,ENE,77,0.0,0.0,80,0.00,CLR,CLR,0.00,WeatherDisplay:10.37,2013-07-23 14:40:00,
2013-07-23 10:45:00,81.7,74.1,29.85,ESE,103,0.0,0.0,78,0.00,CLR,CLR,0.00,WeatherDisplay:10.37,2013-07-23 14:45:00,
2013-07-23 10:50:00,82.0,74.1,29.85,SSE,147,0.0,0.0,77,0.00,CLR,CLR,0.00,WeatherDisplay:10.37,2013-07-23 14:50:00,
2013-07-23 10:55:00,82.2,73.9,29.85,SSE,151,0.0,0.0,76,0.00,CLR,CLR,0.00,WeatherDisplay:10.37,2013-07-23 14:55:00,
2013-07-23 11:00:00,82.6,73.4,29.85,SSE,167,0.0,0.0,74,0.00,CLR,CLR,0.00,WeatherDisplay:10.37,2013-07-23 15:00:00,
2013-07-23 11:05:00,83.3,73.7,29.85,SE,142,0.0,0.0,73,0.00,CLR,CLR,0.00,WeatherDisplay:10.37,2013-07-23 15:05:00,
2013-07-23 11:10:00,83.7,72.8,29.85,ESE,110,0.0,5.0,70,0.00,CLR,CLR,0.00,WeatherDisplay:10.37,2013-07-23 15:10:00,
2013-07-23 11:15:00,84.0,72.3,29.85,NNE,30,3.0,10.0,68,0.00,CLR,CLR,0.00,WeatherDisplay:10.37,2013-07-23 15:15:00,
2013-07-23 11:20:00,84.7,72.1,29.85,North,7,0.0,3.0,66,0.00,CLR,CLR,0.00,WeatherDisplay:10.37,2013-07-23 15:20:00,
2013-07-23 11:25:00,85.1,71.5,29.85,NNE,31,0.0,0.0,64,0.00,CLR,CLR,0.00,WeatherDisplay:10.37,2013-07-23 15:25:00,
2013-07-23 11:30:00,85.6,71.6,29.85,NE,43,0.0,5.0,63,0.00,CLR,CLR,0.00,WeatherDisplay:10.37,2013-07-23 15:30:00,
2013-07-23 11:35:00,86.2,71.6,29.85,NW,309,0.0,5.0,62,0.00,CLR,CLR,0.00,WeatherDisplay:10.37,2013-07-23 15:35:00,
2013-07-23 11:40:00,86.4,70.8,29.85,West,266,0.0,4.0,60,0.00,CLR,CLR,0.00,WeatherDisplay:10.37,2013-07-23 15:40:00,
2013-07-23 11:45:00,86.7,70.7,29.85,West,260,0.0,5.0,59,0.00,CLR,CLR,0.00,WeatherDisplay:10.37,2013-07-23 15:45:00,
2013-07-23 11:50:00,87.1,70.0,29.85,WNW,292,2.0,5.0,57,0.00,CLR,CLR,0.00,WeatherDisplay:10.37,2013-07-23 15:50:00,
2013-07-23 11:55:00,87.3,69.7,29.85,NNW,335,0.0,4.0,56,0.00,CLR,CLR,0.00,WeatherDisplay:10.37,2013-07-23 15:55:00,
2013-07-23 12:00:00,87.6,69.5,29.85,North,356,0.0,9.0,55,0.00,CLR,CLR,0.00,WeatherDisplay:10.37,2013-07-23 16:00:00,
2013-07-23 12:05:00,88.0,69.8,29.85,North,352,0.0,3.0,55,0.00,CLR,CLR,0.00,WeatherDisplay:10.37,2013-07-23 16:05:00,
2013-07-23 12:10:00,88.2,69.4,29.85,NNW,344,0.0,3.0,54,0.00,CLR,CLR,0.00,WeatherDisplay:10.37,2013-07-23 16:10:00,
2013-07-23 12:15:00,88.3,69.0,29.85,NNE,13,0.0,3.0,53,0.00,CLR,CLR,0.00,WeatherDisplay:10.37,2013-07-23 16:15:00,
2013-07-23 12:20:00,88.7,69.4,29.85,ENE,63,0.0,5.0,53,0.00,CLR,CLR,0.00,WeatherDisplay:10.37,2013-07-23 16:20:00,
2013-07-23 12:25:00,88.6,68.2,29.85,NE,44,0.0,5.0,51,0.00,CLR,CLR,0.00,WeatherDisplay:10.37,2013-07-23 16:25:00,
2013-07-23 12:30:00,88.9,67.8,29.85,NNW,337,0.0,5.0,50,0.00,CLR,CLR,0.00,WeatherDisplay:10.37,2013-07-23 16:30:00,
2013-07-23 12:35:00,89.1,68.0,29.85,NNW,342,0.0,0.0,50,0.00,CLR,CLR,0.00,WeatherDisplay:10.37,2013-07-23 16:35:00,
2013-07-23 12:40:00,89.4,67.7,29.85,NNW,328,0.0,0.0,49,0.00,CLR,CLR,0.00,WeatherDisplay:10.37,2013-07-23 16:40:00,
2013-07-23 12:45:00,89.6,67.9,29.85,WSW,249,0.0,0.0,49,0.00,CLR,CLR,0.00,WeatherDisplay:10.37,2013-07-23 16:45:00,
2013-07-23 12:50:00,89.4,67.1,29.85,West,280,0.0,0.0,48,0.00,CLR,CLR,0.00,WeatherDisplay:10.37,2013-07-23 16:50:00,
2013-07-23 12:55:00,89.1,66.8,29.85,NW,307,0.0,0.0,48,0.00,CLR,CLR,0.00,WeatherDisplay:10.37,2013-07-23 16:55:00,
2013-07-23 13:00:00,89.2,66.3,29.85,NNE,13,0.0,3.0,47,0.00,CLR,CLR,0.00,WeatherDisplay:10.37,2013-07-23 17:00:00,
2013-07-23 13:05:00,89.4,66.6,29.85,North,5,0.0,0.0,47,0.00,CLR,CLR,0.00,WeatherDisplay:10.37,2013-07-23 17:05:00,
2013-07-23 13:10:00,89.8,66.9,29.85,NW,325,0.0,0.0,47,0.00,CLR,CLR,0.00,WeatherDisplay:10.37,2013-07-23 17:10:00,
2013-07-23 13:15:00,90.0,65.8,29.85,South,171,0.0,0.0,45,0.00,CLR,CLR,0.00,WeatherDisplay:10.37,2013-07-23 17:15:00,
2013-07-23 13:20:00,90.3,66.7,29.85,South,169,2.0,3.0,46,0.00,CLR,CLR,0.00,WeatherDisplay:10.37,2013-07-23 17:20:00,
2013-07-23 13:25:00,89.8,66.2,29.85,South,175,2.0,0.0,46,0.00,CLR,CLR,0.00,WeatherDisplay:10.37,2013-07-23 17:25:00,
2013-07-23 13:30:00,89.4,65.9,29.85,SSE,159,2.0,6.0,46,0.00,CLR,CLR,0.00,WeatherDisplay:10.37,2013-07-23 17:30:00,
2013-07-23 13:35:00,89.2,65.8,29.85,West,271,0.0,0.0,46,0.00,CLR,CLR,0.00,WeatherDisplay:10.37,2013-07-23 17:35:00,
2013-07-23 13:40:00,89.0,64.9,29.85,NW,309,0.0,6.0,45,0.00,CLR,CLR,0.00,WeatherDisplay:10.37,2013-07-23 17:40:00,
2013-07-23 13:45:00,88.7,65.3,29.85,NNW,340,0.0,3.0,46,0.00,CLR,CLR,0.00,WeatherDisplay:10.37,2013-07-23 17:45:00,
2013-07-23 14:00:00,87.6,66.1,29.85,NNE,12,0.0,0.0,49,0.00,CLR,CLR,0.00,WeatherDisplay:10.37,2013-07-23 18:00:00,
2013-07-23 14:10:00,88.2,64.1,29.85,North,360,3.0,8.0,45,0.00,CLR,CLR,0.00,WeatherDisplay:10.37,2013-07-23 18:10:00,
2013-07-23 14:15:00,89.0,65.5,29.85,North,359,0.0,3.0,46,0.00,CLR,CLR,0.00,WeatherDisplay:10.37,2013-07-23 18:15:00,
2013-07-23 14:20:00,89.8,65.0,29.83,NW,326,0.0,7.0,44,0.00,CLR,CLR,0.00,WeatherDisplay:10.37,2013-07-23 18:20:00,
2013-07-23 14:30:00,90.9,65.3,29.83,NW,314,0.0,5.0,43,0.00,CLR,CLR,0.00,WeatherDisplay:10.37,2013-07-23 18:30:00,
2013-07-23 14:35:00,90.7,65.8,29.83,WNW,299,0.0,0.0,44,0.00,CLR,CLR,0.00,WeatherDisplay:10.37,2013-07-23 18:35:00,
2013-07-23 14:40:00,90.0,64.5,29.83,North,6,0.0,4.0,43,0.00,CLR,CLR,0.00,WeatherDisplay:10.37,2013-07-23 18:40:00,
2013-07-23 14:45:00,89.8,65.0,29.83,NNW,328,0.0,4.0,44,0.00,CLR,CLR,0.00,WeatherDisplay:10.37,2013-07-23 18:45:00,
2013-07-23 14:55:00,90.1,64.6,29.83,NNW,347,0.0,3.0,43,0.00,CLR,CLR,0.00,WeatherDisplay:10.37,2013-07-23 18:55:00,
2013-07-23 15:00:00,90.1,64.6,29.83,WNW,288,2.0,4.0,43,0.00,CLR,CLR,0.00,WeatherDisplay:10.37,2013-07-23 19:00:00,
2013-07-23 15:10:00,90.3,64.8,29.83,NNW,328,0.0,7.0,43,0.00,CLR,CLR,0.00,WeatherDisplay:10.37,2013-07-23 19:10:00,
2013-07-23 15:15:00,89.8,65.0,29.83,NNW,344,0.0,0.0,44,0.00,CLR,CLR,0.00,WeatherDisplay:10.37,2013-07-23 19:15:00,
2013-07-23 15:20:00,89.3,64.5,29.83,West,278,0.0,7.0,44,0.00,CLR,CLR,0.00,WeatherDisplay:10.37,2013-07-23 19:20:00,
2013-07-23 15:25:00,89.2,64.5,29.83,North,8,1.0,7.0,44,0.00,CLR,CLR,0.00,WeatherDisplay:10.37,2013-07-23 19:25:00,
2013-07-23 15:30:00,89.2,64.5,29.83,North,3,1.0,8.0,44,0.00,CLR,CLR,0.00,WeatherDisplay:10.37,2013-07-23 19:30:00,
2013-07-23 15:35:00,89.3,64.5,29.83,NNW,342,2.0,5.0,44,0.00,CLR,CLR,0.00,WeatherDisplay:10.37,2013-07-23 19:35:00,
2013-07-23 15:40:00,89.1,64.3,29.83,NNE,13,0.0,5.0,44,0.00,CLR,CLR,0.00,WeatherDisplay:10.37,2013-07-23 19:40:00,
2013-07-23 15:45:00,88.6,63.9,29.83,SE,124,0.0,3.0,44,0.00,CLR,CLR,0.00,WeatherDisplay:10.37,2013-07-23 19:45:00,
2013-07-23 15:50:00,88.2,64.1,29.83,SE,125,0.0,0.0,45,0.00,CLR,CLR,0.00,WeatherDisplay:10.37,2013-07-23 19:50:00,
2013-07-23 16:00:00,87.8,63.8,29.80,NE,35,1.0,10.0,45,0.00,CLR,CLR,0.00,WeatherDisplay:10.37,2013-07-23 20:00:00,
2013-07-23 16:05:00,87.6,63.7,29.80,North,10,0.0,6.0,45,0.00,CLR,CLR,0.00,WeatherDisplay:10.37,2013-07-23 20:05:00,
2013-07-23 16:10:00,87.4,63.5,29.80,NNW,344,0.0,6.0,45,0.00,CLR,CLR,0.00,WeatherDisplay:10.37,2013-07-23 20:10:00,
2013-07-23 16:25:00,87.3,64.6,29.80,SSW,210,0.0,5.0,47,0.00,CLR,CLR,0.00,WeatherDisplay:10.37,2013-07-23 20:25:00,
2013-07-23 16:30:00,87.1,64.4,29.80,South,179,0.0,5.0,47,0.00,CLR,CLR,0.00,WeatherDisplay:10.37,2013-07-23 20:30:00,
2013-07-23 16:35:00,87.1,65.0,29.80,South,180,0.0,5.0,48,0.00,CLR,CLR,0.00,WeatherDisplay:10.37,2013-07-23 20:35:00,
2013-07-23 16:45:00,86.7,65.3,29.80,NW,318,0.0,5.0,49,0.00,CLR,CLR,0.00,WeatherDisplay:10.37,2013-07-23 20:45:00,
2013-07-23 16:50:00,86.5,64.5,29.80,SW,235,0.0,0.0,48,0.00,CLR,CLR,0.00,WeatherDisplay:10.37,2013-07-23 20:50:00,
2013-07-23 16:55:00,86.5,64.5,29.80,West,277,0.0,0.0,48,0.00,CLR,CLR,0.00,WeatherDisplay:10.37,2013-07-23 20:55:00,
2013-07-23 17:00:00,86.4,64.4,29.80,WSW,247,0.0,0.0,48,0.00,CLR,CLR,0.00,WeatherDisplay:10.37,2013-07-23 21:00:00,
2013-07-23 17:10:00,86.2,63.6,29.80,South,170,0.0,4.0,47,0.00,CLR,CLR,0.00,WeatherDisplay:10.37,2013-07-23 21:10:00,
2013-07-23 17:15:00,86.2,63.0,29.80,NW,313,0.0,5.0,46,0.00,CLR,CLR,0.00,WeatherDisplay:10.37,2013-07-23 21:15:00,
2013-07-23 17:20:00,86.2,63.0,29.80,NW,322,0.0,3.0,46,0.00,CLR,CLR,0.00,WeatherDisplay:10.37,2013-07-23 21:20:00,
2013-07-23 17:25:00,86.2,63.6,29.80,WSW,251,0.0,0.0,47,0.00,CLR,CLR,0.00,WeatherDisplay:10.37,2013-07-23 21:25:00,
2013-07-23 17:30:00,86.0,64.0,29.80,SW,225,0.0,0.0,48,0.00,CLR,CLR,0.00,WeatherDisplay:10.37,2013-07-23 21:30:00,
2013-07-23 17:35:00,85.8,64.5,29.80,SSW,204,0.0,0.0,49,0.00,CLR,CLR,0.00,WeatherDisplay:10.37,2013-07-23 21:35:00,
2013-07-23 17:50:00,85.6,65.4,29.80,SE,128,0.0,0.0,51,0.00,CLR,CLR,0.00,WeatherDisplay:10.37,2013-07-23 21:50:00,
2013-07-23 17:55:00,85.4,64.7,29.80,SE,128,0.0,0.0,50,0.00,CLR,CLR,0.00,WeatherDisplay:10.37,2013-07-23 21:55:00,
2013-07-23 18:00:00,85.2,65.0,29.80,SE,128,0.0,0.0,51,0.00,CLR,CLR,0.00,WeatherDisplay:10.37,2013-07-23 22:00:00,
2013-07-23 18:05:00,85.1,65.5,29.80,SE,128,0.0,0.0,52,0.00,CLR,CLR,0.00,WeatherDisplay:10.37,2013-07-23 22:05:00,
2013-07-23 18:10:00,84.9,65.9,29.77,SE,128,0.0,0.0,53,0.00,CLR,CLR,0.00,WeatherDisplay:10.37,2013-07-23 22:10:00,
2013-07-23 18:15:00,84.9,66.4,29.77,SE,128,0.0,0.0,54,0.00,CLR,CLR,0.00,WeatherDisplay:10.37,2013-07-23 22:15:00,
2013-07-23 18:25:00,84.9,66.4,29.77,ENE,60,0.0,0.0,54,0.00,CLR,CLR,0.00,WeatherDisplay:10.37,2013-07-23 22:25:00,
2013-07-23 18:35:00,84.6,66.1,29.77,NE,50,0.0,0.0,54,0.00,CLR,CLR,0.00,WeatherDisplay:10.37,2013-07-23 22:35:00,
2013-07-23 18:40:00,84.4,65.9,29.77,NE,50,0.0,0.0,54,0.00,CLR,CLR,0.00,WeatherDisplay:10.37,2013-07-23 22:40:00,
2013-07-23 18:45:00,84.2,66.3,29.77,NE,50,0.0,0.0,55,0.00,CLR,CLR,0.00,WeatherDisplay:10.37,2013-07-23 22:45:00,
2013-07-23 18:50:00,84.0,66.1,29.77,NE,50,0.0,0.0,55,0.00,CLR,CLR,0.00,WeatherDisplay:10.37,2013-07-23 22:50:00,
2013-07-23 18:55:00,83.9,66.0,29.77,NE,50,0.0,0.0,55,0.00,CLR,CLR,0.00,WeatherDisplay:10.37,2013-07-23 22:55:00,
2013-07-23 19:00:00,83.7,66.3,29.77,NE,50,0.0,0.0,56,0.00,CLR,CLR,0.00,WeatherDisplay:10.37,2013-07-23 23:00:00,
2013-07-23 19:05:00,83.4,66.0,29.77,NE,50,0.0,0.0,56,0.00,CLR,CLR,0.00,WeatherDisplay:10.37,2013-07-23 23:05:00,
2013-07-23 19:15:00,83.1,66.3,29.77,NE,50,0.0,0.0,57,0.00,CLR,CLR,0.00,WeatherDisplay:10.37,2013-07-23 23:15:00,
2013-07-23 19:25:00,82.8,67.0,29.80,ESE,103,0.0,0.0,59,0.00,CLR,CLR,0.00,WeatherDisplay:10.37,2013-07-23 23:25:00,
2013-07-23 19:30:00,82.5,67.3,29.80,ENE,59,0.0,0.0,60,0.00,CLR,CLR,0.00,WeatherDisplay:10.37,2013-07-23 23:30:00,
2013-07-23 19:45:00,81.9,67.1,29.80,North,359,0.0,0.0,61,0.00,CLR,CLR,0.00,WeatherDisplay:10.37,2013-07-23 23:45:00,
2013-07-23 19:55:00,81.5,67.2,29.80,North,2,0.0,0.0,62,0.00,CLR,CLR,0.00,WeatherDisplay:10.37,2013-07-23 23:55:00,
2013-07-23 20:00:00,81.1,67.3,29.80,North,6,0.0,0.0,63,0.00,CLR,CLR,0.00,WeatherDisplay:10.37,2013-07-24 00:00:00,
2013-07-23 20:05:00,81.0,67.6,29.80,North,7,0.0,0.0,64,0.00,CLR,CLR,0.00,WeatherDisplay:10.37,2013-07-24 00:05:00,
2013-07-23 20:10:00,80.6,67.3,29.80,North,8,0.0,0.0,64,0.00,CLR,CLR,0.00,WeatherDisplay:10.37,2013-07-24 00:10:00,
2013-07-23 20:15:00,80.4,67.1,29.80,North,8,0.0,0.0,64,0.00,CLR,CLR,0.00,WeatherDisplay:10.37,2013-07-24 00:15:00,
2013-07-23 20:20:00,80.2,67.0,29.80,North,7,0.0,0.0,64,0.00,CLR,CLR,0.00,WeatherDisplay:10.37,2013-07-24 00:20:00,
2013-07-23 20:30:00,79.7,66.9,29.80,North,7,0.0,0.0,65,0.00,CLR,CLR,0.00,WeatherDisplay:10.37,2013-07-24 00:30:00,
2013-07-23 20:45:00,79.0,67.1,29.80,North,7,0.0,0.0,67,0.00,CLR,CLR,0.00,WeatherDisplay:10.37,2013-07-24 00:45:00,
2013-07-23 20:50:00,78.8,66.9,29.80,North,7,0.0,0.0,67,0.00,CLR,CLR,0.00,WeatherDisplay:10.37,2013-07-24 00:50:00,
2013-07-23 20:55:00,78.4,66.6,29.80,North,7,0.0,0.0,67,0.00,CLR,CLR,0.00,WeatherDisplay:10.37,2013-07-24 00:55:00,
2013-07-23 21:00:00,78.2,66.4,29.80,North,7,0.0,0.0,67,0.00,CLR,CLR,0.00,WeatherDisplay:10.37,2013-07-24 01:00:00,
2013-07-23 21:10:00,77.7,66.7,29.80,North,7,0.0,0.0,69,0.00,CLR,CLR,0.00,WeatherDisplay:10.37,2013-07-24 01:10:00,
2013-07-23 21:15:00,77.5,66.6,29.80,North,7,0.0,0.0,69,0.00,CLR,CLR,0.00,WeatherDisplay:10.37,2013-07-24 01:15:00,
2013-07-23 21:20:00,77.4,66.8,29.80,North,7,0.0,0.0,70,0.00,CLR,CLR,0.00,WeatherDisplay:10.37,2013-07-24 01:20:00,
2013-07-23 21:30:00,77.0,66.9,29.80,North,7,0.0,0.0,71,0.00,CLR,CLR,0.00,WeatherDisplay:10.37,2013-07-24 01:30:00,
2013-07-23 21:35:00,76.8,66.7,29.80,North,7,0.0,0.0,71,0.00,CLR,CLR,0.00,WeatherDisplay:10.37,2013-07-24 01:35:00,
2013-07-23 21:40:00,76.6,66.9,29.80,North,7,0.0,0.0,72,0.00,CLR,CLR,0.00,WeatherDisplay:10.37,2013-07-24 01:40:00,
2013-07-23 21:45:00,76.5,66.8,29.80,North,7,0.0,0.0,72,0.00,CLR,CLR,0.00,WeatherDisplay:10.37,2013-07-24 01:45:00,
2013-07-23 21:50:00,76.3,67.0,29.80,North,7,0.0,0.0,73,0.00,CLR,CLR,0.00,WeatherDisplay:10.37,2013-07-24 01:50:00,
2013-07-23 22:00:00,75.9,67.0,29.83,North,7,0.0,0.0,74,0.00,CLR,CLR,0.00,WeatherDisplay:10.37,2013-07-24 02:00:00,
2013-07-23 22:05:00,75.9,67.4,29.83,North,7,0.0,0.0,75,0.00,CLR,CLR,0.00,WeatherDisplay:10.37,2013-07-24 02:05:00,
2013-07-23 22:15:00,75.7,67.6,29.83,North,7,0.0,0.0,76,0.00,CLR,CLR,0.00,WeatherDisplay:10.37,2013-07-24 02:15:00,
2013-07-23 22:25:00,75.4,67.3,29.83,North,7,0.0,0.0,76,0.00,CLR,CLR,0.00,WeatherDisplay:10.37,2013-07-24 02:25:00,
2013-07-23 22:30:00,75.2,67.5,29.83,North,7,0.0,0.0,77,0.00,CLR,CLR,0.00,WeatherDisplay:10.37,2013-07-24 02:30:00,
2013-07-23 22:35:00,75.0,67.3,29.83,North,7,0.0,0.0,77,0.00,CLR,CLR,0.00,WeatherDisplay:10.37,2013-07-24 02:35:00,
2013-07-23 22:40:00,75.0,67.6,29.83,North,7,0.0,0.0,78,0.00,CLR,CLR,0.00,WeatherDisplay:10.37,2013-07-24 02:40:00,
2013-07-23 22:45:00,74.8,67.5,29.83,North,7,0.0,0.0,78,0.00,CLR,CLR,0.00,WeatherDisplay:10.37,2013-07-24 02:45:00,
2013-07-23 22:50:00,74.8,67.4,29.83,North,7,0.0,0.0,78,0.00,CLR,CLR,0.00,WeatherDisplay:10.37,2013-07-24 02:50:00,
2013-07-23 23:00:00,74.7,67.7,29.83,North,7,0.0,0.0,79,0.00,CLR,CLR,0.00,WeatherDisplay:10.37,2013-07-24 03:00:00,
2013-07-23 23:05:00,74.7,68.1,29.83,North,7,0.0,0.0,80,0.00,CLR,CLR,0.00,WeatherDisplay:10.37,2013-07-24 03:05:00,
2013-07-23 23:10:00,74.5,67.9,29.83,North,7,0.0,0.0,80,0.00,CLR,CLR,0.00,WeatherDisplay:10.37,2013-07-24 03:10:00,
2013-07-23 23:15:00,74.5,67.9,29.83,North,7,0.0,0.0,80,0.00,CLR,CLR,0.00,WeatherDisplay:10.37,2013-07-24 03:15:00,
2013-07-23 23:20:00,74.5,67.9,29.83,North,7,0.0,0.0,80,0.00,CLR,CLR,0.00,WeatherDisplay:10.37,2013-07-24 03:20:00,
2013-07-23 23:25:00,74.5,68.3,29.83,North,7,0.0,0.0,81,0.00,CLR,CLR,0.00,WeatherDisplay:10.37,2013-07-24 03:25:00,
2013-07-23 23:30:00,74.3,68.1,29.83,North,7,0.0,0.0,81,0.00,CLR,CLR,0.00,WeatherDisplay:10.37,2013-07-24 03:30:00,
2013-07-23 23:35:00,74.3,68.1,29.83,North,7,0.0,0.0,81,0.00,CLR,CLR,0.00,WeatherDisplay:10.37,2013-07-24 03:35:00,
2013-07-23 23:40:00,74.1,68.3,29.83,North,7,0.0,0.0,82,0.00,CLR,CLR,0.00,WeatherDisplay:10.37,2013-07-24 03:40:00,
2013-07-23 23:45:00,74.1,68.3,29.83,North,7,0.0,0.0,82,0.00,CLR,CLR,0.00,WeatherDisplay:10.37,2013-07-24 03:45:00,
2013-07-23 23:50:00,74.1,68.3,29.83,North,7,0.0,0.0,82,0.00,CLR,CLR,0.00,WeatherDisplay:10.37,2013-07-24 03:50:00,